sensor_id;sensor_type;location;lat;lon;timestamp;P1;durP1;ratioP1;P2;durP2;ratioP2
75922;SDS011;64602;47.542;19.090;2023-06-22T05:46:50;9.30;;;3.87;;
75922;SDS011;64602;47.542;19.090;2023-06-22T05:51:53;10.80;;;3.53;;
75922;SDS011;64602;47.542;19.090;2023-06-22T05:56:55;8.33;;;3.83;;
75922;SDS011;64602;47.542;19.090;2023-06-22T06:01:57;10.67;;;4.40;;
75922;SDS011;64602;47.542;19.090;2023-06-22T06:07:00;8.07;;;4.60;;
75922;SDS011;64602;47.542;19.090;2023-06-22T06:12:03;14.55;;;4.55;;
75922;SDS011;64602;47.542;19.090;2023-06-22T06:17:06;10.93;;;4.07;;
75922;SDS011;64602;47.542;19.090;2023-06-22T06:22:08;8.98;;;3.85;;
75922;SDS011;64602;47.542;19.090;2023-06-22T06:27:10;9.15;;;3.83;;
75922;SDS011;64602;47.542;19.090;2023-06-22T06:32:13;9.07;;;4.47;;
75922;SDS011;64602;47.542;19.090;2023-06-22T06:37:15;8.35;;;4.03;;
75922;SDS011;64602;47.542;19.090;2023-06-22T06:42:18;8.95;;;3.90;;
75922;SDS011;64602;47.542;19.090;2023-06-22T06:47:21;9.50;;;3.60;;
75922;SDS011;64602;47.542;19.090;2023-06-22T06:52:23;10.90;;;3.63;;
75922;SDS011;64602;47.542;19.090;2023-06-22T06:57:25;9.15;;;3.15;;
75922;SDS011;64602;47.542;19.090;2023-06-22T07:02:31;10.70;;;3.67;;
75922;SDS011;64602;47.542;19.090;2023-06-22T07:07:34;8.93;;;3.60;;
75922;SDS011;64602;47.542;19.090;2023-06-22T07:12:39;11.07;;;3.15;;
75922;SDS011;64602;47.542;19.090;2023-06-22T07:17:41;9.80;;;2.92;;
75922;SDS011;64602;47.542;19.090;2023-06-22T07:22:44;7.07;;;2.17;;
75922;SDS011;64602;47.542;19.090;2023-06-22T07:27:56;11.02;;;3.00;;
75922;SDS011;64602;47.542;19.090;2023-06-22T07:33:04;8.18;;;2.78;;
75922;SDS011;64602;47.542;19.090;2023-06-22T07:38:10;8.23;;;2.60;;
75922;SDS011;64602;47.542;19.090;2023-06-22T07:43:12;6.40;;;2.50;;
75922;SDS011;64602;47.542;19.090;2023-06-22T07:48:14;10.23;;;2.87;;
75922;SDS011;64602;47.542;19.090;2023-06-22T07:53:16;6.10;;;2.35;;
75922;SDS011;64602;47.542;19.090;2023-06-22T07:58:19;6.13;;;2.33;;
75922;SDS011;64602;47.542;19.090;2023-06-22T08:03:22;5.62;;;2.45;;
75922;SDS011;64602;47.542;19.090;2023-06-22T08:08:24;8.50;;;2.33;;
75922;SDS011;64602;47.542;19.090;2023-06-22T08:13:26;9.03;;;2.60;;
75922;SDS011;64602;47.542;19.090;2023-06-22T08:18:29;5.80;;;2.40;;
75922;SDS011;64602;47.542;19.090;2023-06-22T08:23:31;8.40;;;3.00;;
75922;SDS011;64602;47.542;19.090;2023-06-22T08:28:33;6.40;;;2.43;;
75922;SDS011;64602;47.542;19.090;2023-06-22T08:33:35;10.20;;;3.30;;
75922;SDS011;64602;47.542;19.090;2023-06-22T08:38:37;8.82;;;3.12;;
75922;SDS011;64602;47.542;19.090;2023-06-22T08:43:39;9.57;;;2.90;;
75922;SDS011;64602;47.542;19.090;2023-06-22T08:48:42;6.27;;;3.20;;
75922;SDS011;64602;47.542;19.090;2023-06-22T08:53:44;9.43;;;4.18;;
75922;SDS011;64602;47.542;19.090;2023-06-22T08:58:47;8.40;;;4.75;;
75922;SDS011;64602;47.542;19.090;2023-06-22T09:03:49;9.43;;;4.70;;
75922;SDS011;64602;47.542;19.090;2023-06-22T09:08:56;12.43;;;5.37;;
75922;SDS011;64602;47.542;19.090;2023-06-22T09:14:01;12.85;;;5.82;;
75922;SDS011;64602;47.542;19.090;2023-06-22T09:19:03;12.40;;;7.03;;
75922;SDS011;64602;47.542;19.090;2023-06-22T09:24:05;9.90;;;6.07;;
75922;SDS011;64602;47.542;19.090;2023-06-22T09:29:07;9.73;;;5.78;;
75922;SDS011;64602;47.542;19.090;2023-06-22T09:34:10;8.75;;;6.07;;
75922;SDS011;64602;47.542;19.090;2023-06-22T09:39:13;9.50;;;5.77;;
75922;SDS011;64602;47.542;19.090;2023-06-22T09:44:15;10.55;;;6.75;;
75922;SDS011;64602;47.542;19.090;2023-06-22T09:49:17;8.95;;;6.75;;
75922;SDS011;64602;47.542;19.090;2023-06-22T09:54:24;12.63;;;7.03;;
75922;SDS011;64602;47.542;19.090;2023-06-22T09:59:26;11.48;;;7.18;;
75922;SDS011;64602;47.542;19.090;2023-06-22T10:04:28;11.65;;;6.50;;
75922;SDS011;64602;47.542;19.090;2023-06-22T10:09:31;10.53;;;7.27;;
75922;SDS011;64602;47.542;19.090;2023-06-22T10:14:33;10.00;;;7.13;;
75922;SDS011;64602;47.542;19.090;2023-06-22T10:19:35;9.70;;;6.78;;
75922;SDS011;64602;47.542;19.090;2023-06-22T10:24:39;7.60;;;5.80;;
75922;SDS011;64602;47.542;19.090;2023-06-22T10:29:46;11.97;;;6.73;;
75922;SDS011;64602;47.542;19.090;2023-06-22T10:34:48;9.18;;;6.18;;
75922;SDS011;64602;47.542;19.090;2023-06-22T10:39:50;8.18;;;6.25;;
75922;SDS011;64602;47.542;19.090;2023-06-22T10:44:53;9.13;;;7.07;;
75922;SDS011;64602;47.542;19.090;2023-06-22T10:49:55;12.43;;;7.65;;
75922;SDS011;64602;47.542;19.090;2023-06-22T10:54:57;10.23;;;6.82;;
75922;SDS011;64602;47.542;19.090;2023-06-22T10:59:59;10.60;;;6.40;;
75922;SDS011;64602;47.542;19.090;2023-06-22T11:05:02;12.80;;;6.93;;
75922;SDS011;64602;47.542;19.090;2023-06-22T11:10:05;16.83;;;7.50;;
75922;SDS011;64602;47.542;19.090;2023-06-22T11:15:08;32.05;;;9.35;;
75922;SDS011;64602;47.542;19.090;2023-06-22T11:20:11;12.83;;;6.53;;
75922;SDS011;64602;47.542;19.090;2023-06-22T11:25:13;13.68;;;6.90;;
75922;SDS011;64602;47.542;19.090;2023-06-22T11:30:15;30.90;;;13.85;;
75922;SDS011;64602;47.542;19.090;2023-06-22T11:35:18;20.53;;;14.37;;
75922;SDS011;64602;47.542;19.090;2023-06-22T11:40:20;12.75;;;8.35;;
75922;SDS011;64602;47.542;19.090;2023-06-22T11:45:22;9.52;;;7.00;;
75922;SDS011;64602;47.542;19.090;2023-06-22T11:50:24;12.03;;;7.17;;
75922;SDS011;64602;47.542;19.090;2023-06-22T11:55:27;11.27;;;7.40;;
75922;SDS011;64602;47.542;19.090;2023-06-22T12:00:29;22.90;;;14.87;;
75922;SDS011;64602;47.542;19.090;2023-06-22T12:05:31;11.85;;;7.03;;
75922;SDS011;64602;47.542;19.090;2023-06-22T12:10:34;10.90;;;7.60;;
75922;SDS011;64602;47.542;19.090;2023-06-22T12:15:36;13.82;;;8.25;;
75922;SDS011;64602;47.542;19.090;2023-06-22T12:20:38;31.58;;;23.20;;
75922;SDS011;64602;47.542;19.090;2023-06-22T12:25:40;13.50;;;8.60;;
75922;SDS011;64602;47.542;19.090;2023-06-22T12:30:43;14.23;;;8.07;;
75922;SDS011;64602;47.542;19.090;2023-06-22T12:35:45;10.70;;;7.07;;
75922;SDS011;64602;47.542;19.090;2023-06-22T12:40:50;12.80;;;9.07;;
75922;SDS011;64602;47.542;19.090;2023-06-22T12:45:52;9.23;;;7.23;;
75922;SDS011;64602;47.542;19.090;2023-06-22T12:50:55;12.40;;;7.30;;
75922;SDS011;64602;47.542;19.090;2023-06-22T12:55:57;43.75;;;15.95;;
75922;SDS011;64602;47.542;19.090;2023-06-22T13:01:00;11.80;;;7.13;;
75922;SDS011;64602;47.542;19.090;2023-06-22T13:06:02;13.32;;;7.50;;
75922;SDS011;64602;47.542;19.090;2023-06-22T13:11:05;14.00;;;7.50;;
75922;SDS011;64602;47.542;19.090;2023-06-22T13:16:07;10.00;;;7.03;;
75922;SDS011;64602;47.542;19.090;2023-06-22T13:21:09;12.57;;;7.47;;
75922;SDS011;64602;47.542;19.090;2023-06-22T13:26:12;12.48;;;8.13;;
75922;SDS011;64602;47.542;19.090;2023-06-22T13:31:15;11.17;;;8.20;;
75922;SDS011;64602;47.542;19.090;2023-06-22T13:36:17;9.90;;;7.07;;
75922;SDS011;64602;47.542;19.090;2023-06-22T13:41:19;10.35;;;7.47;;
75922;SDS011;64602;47.542;19.090;2023-06-22T13:46:22;12.27;;;7.32;;
75922;SDS011;64602;47.542;19.090;2023-06-22T13:51:24;12.17;;;7.17;;
75922;SDS011;64602;47.542;19.090;2023-06-22T13:56:28;11.23;;;7.45;;
75922;SDS011;64602;47.542;19.090;2023-06-22T14:01:30;11.63;;;6.87;;
75922;SDS011;64602;47.542;19.090;2023-06-22T14:06:32;11.27;;;7.67;;
75922;SDS011;64602;47.542;19.090;2023-06-22T14:11:34;11.48;;;6.78;;
75922;SDS011;64602;47.542;19.090;2023-06-22T14:16:37;12.50;;;6.50;;
75922;SDS011;64602;47.542;19.090;2023-06-22T14:21:39;10.50;;;6.50;;
75922;SDS011;64602;47.542;19.090;2023-06-22T14:26:41;11.13;;;6.20;;
75922;SDS011;64602;47.542;19.090;2023-06-22T14:31:44;13.15;;;6.78;;
75922;SDS011;64602;47.542;19.090;2023-06-22T14:36:47;10.43;;;6.78;;
75922;SDS011;64602;47.542;19.090;2023-06-22T14:41:50;8.50;;;6.70;;
75922;SDS011;64602;47.542;19.090;2023-06-22T14:46:52;10.95;;;7.25;;
75922;SDS011;64602;47.542;19.090;2023-06-22T14:51:54;11.50;;;6.45;;
75922;SDS011;64602;47.542;19.090;2023-06-22T14:56:56;9.97;;;7.40;;
75922;SDS011;64602;47.542;19.090;2023-06-22T15:01:58;8.95;;;6.68;;
75922;SDS011;64602;47.542;19.090;2023-06-22T15:07:00;9.20;;;6.35;;
75922;SDS011;64602;47.542;19.090;2023-06-22T15:12:03;8.07;;;6.73;;
75922;SDS011;64602;47.542;19.090;2023-06-22T15:17:07;10.00;;;6.90;;
75922;SDS011;64602;47.542;19.090;2023-06-22T15:22:10;10.35;;;6.47;;
75922;SDS011;64602;47.542;19.090;2023-06-22T15:27:12;9.60;;;6.20;;
75922;SDS011;64602;47.542;19.090;2023-06-22T15:32:15;11.30;;;7.10;;
75922;SDS011;64602;47.542;19.090;2023-06-22T15:37:18;14.55;;;7.05;;
75922;SDS011;64602;47.542;19.090;2023-06-22T15:42:20;11.60;;;6.60;;
75922;SDS011;64602;47.542;19.090;2023-06-22T15:47:22;8.40;;;6.33;;
75922;SDS011;64602;47.542;19.090;2023-06-22T15:52:24;13.20;;;6.90;;
75922;SDS011;64602;47.542;19.090;2023-06-22T15:57:26;12.27;;;6.70;;
75922;SDS011;64602;47.542;19.090;2023-06-22T16:02:29;9.97;;;6.30;;
75922;SDS011;64602;47.542;19.090;2023-06-22T16:07:31;9.63;;;6.63;;
75922;SDS011;64602;47.542;19.090;2023-06-22T16:12:34;10.80;;;6.62;;
75922;SDS011;64602;47.542;19.090;2023-06-22T16:17:37;10.63;;;6.95;;
75922;SDS011;64602;47.542;19.090;2023-06-22T16:22:40;13.57;;;6.60;;
75922;SDS011;64602;47.542;19.090;2023-06-22T16:27:43;10.38;;;6.80;;
75922;SDS011;64602;47.542;19.090;2023-06-22T16:32:50;12.82;;;7.12;;
75922;SDS011;64602;47.542;19.090;2023-06-22T16:37:53;13.77;;;7.20;;
75922;SDS011;64602;47.542;19.090;2023-06-22T16:42:56;15.55;;;7.80;;
75922;SDS011;64602;47.542;19.090;2023-06-22T16:47:58;18.65;;;7.60;;
75922;SDS011;64602;47.542;19.090;2023-06-22T16:53:00;9.77;;;6.70;;
75922;SDS011;64602;47.542;19.090;2023-06-22T16:58:03;10.10;;;6.70;;
75922;SDS011;64602;47.542;19.090;2023-06-22T17:03:05;11.68;;;6.75;;
75922;SDS011;64602;47.542;19.090;2023-06-22T17:08:11;12.37;;;7.53;;
75922;SDS011;64602;47.542;19.090;2023-06-22T17:13:16;13.20;;;6.90;;
75922;SDS011;64602;47.542;19.090;2023-06-22T17:18:18;10.77;;;7.57;;
75922;SDS011;64602;47.542;19.090;2023-06-22T17:23:22;11.95;;;6.90;;
75922;SDS011;64602;47.542;19.090;2023-06-22T17:28:25;9.20;;;6.43;;
75922;SDS011;64602;47.542;19.090;2023-06-22T17:33:28;11.05;;;6.68;;
75922;SDS011;64602;47.542;19.090;2023-06-22T17:38:30;8.82;;;6.70;;
75922;SDS011;64602;47.542;19.090;2023-06-22T17:43:32;12.20;;;6.87;;
75922;SDS011;64602;47.542;19.090;2023-06-22T17:48:44;11.47;;;7.67;;
75922;SDS011;64602;47.542;19.090;2023-06-22T17:53:48;10.45;;;7.22;;
75922;SDS011;64602;47.542;19.090;2023-06-22T17:58:53;11.60;;;7.75;;
75922;SDS011;64602;47.542;19.090;2023-06-22T18:03:56;9.70;;;7.30;;
75922;SDS011;64602;47.542;19.090;2023-06-22T18:08:59;8.73;;;7.22;;
75922;SDS011;64602;47.542;19.090;2023-06-22T18:14:03;13.40;;;7.82;;
75922;SDS011;64602;47.542;19.090;2023-06-22T18:19:06;11.93;;;7.33;;
75922;SDS011;64602;47.542;19.090;2023-06-22T18:24:08;14.95;;;7.85;;
75922;SDS011;64602;47.542;19.090;2023-06-22T18:29:11;12.52;;;7.22;;
75922;SDS011;64602;47.542;19.090;2023-06-22T18:34:14;12.93;;;6.73;;
75922;SDS011;64602;47.542;19.090;2023-06-22T18:39:16;11.90;;;6.70;;
75922;SDS011;64602;47.542;19.090;2023-06-22T18:44:20;14.05;;;6.62;;
75922;SDS011;64602;47.542;19.090;2023-06-22T18:49:30;10.25;;;7.05;;
75922;SDS011;64602;47.542;19.090;2023-06-22T18:54:34;11.80;;;6.40;;
75922;SDS011;64602;47.542;19.090;2023-06-22T19:04:50;10.77;;;6.45;;
75922;SDS011;64602;47.542;19.090;2023-06-22T19:10:26;9.70;;;6.03;;
75922;SDS011;64602;47.542;19.090;2023-06-22T19:15:34;10.38;;;6.20;;
75922;SDS011;64602;47.542;19.090;2023-06-22T19:20:37;10.02;;;7.18;;
75922;SDS011;64602;47.542;19.090;2023-06-22T19:25:40;11.60;;;7.57;;
75922;SDS011;64602;47.542;19.090;2023-06-22T19:30:47;17.63;;;10.50;;
75922;SDS011;64602;47.542;19.090;2023-06-22T19:35:49;11.32;;;7.32;;
75922;SDS011;64602;47.542;19.090;2023-06-22T19:40:52;12.35;;;6.32;;
75922;SDS011;64602;47.542;19.090;2023-06-22T19:45:55;12.73;;;6.53;;
75922;SDS011;64602;47.542;19.090;2023-06-22T19:51:02;10.32;;;7.10;;
75922;SDS011;64602;47.542;19.090;2023-06-22T19:56:06;11.35;;;6.72;;
75922;SDS011;64602;47.542;19.090;2023-06-22T20:01:08;11.63;;;7.20;;
75922;SDS011;64602;47.542;19.090;2023-06-22T20:06:11;11.45;;;7.35;;
75922;SDS011;64602;47.542;19.090;2023-06-22T20:11:26;9.80;;;6.72;;
75922;SDS011;64602;47.542;19.090;2023-06-22T20:16:31;10.30;;;6.97;;
75922;SDS011;64602;47.542;19.090;2023-06-22T20:21:34;10.80;;;6.83;;
75922;SDS011;64602;47.542;19.090;2023-06-22T20:26:37;12.35;;;7.05;;
75922;SDS011;64602;47.542;19.090;2023-06-22T20:31:40;13.32;;;7.10;;
75922;SDS011;64602;47.542;19.090;2023-06-22T20:36:42;11.50;;;7.03;;
75922;SDS011;64602;47.542;19.090;2023-06-22T20:41:44;14.77;;;8.40;;
75922;SDS011;64602;47.542;19.090;2023-06-22T20:46:46;14.57;;;9.45;;
75922;SDS011;64602;47.542;19.090;2023-06-22T20:51:49;17.70;;;9.23;;
75922;SDS011;64602;47.542;19.090;2023-06-22T20:56:51;14.90;;;7.72;;
75922;SDS011;64602;47.542;19.090;2023-06-22T21:01:53;11.55;;;7.47;;
75922;SDS011;64602;47.542;19.090;2023-06-22T21:06:58;12.00;;;7.60;;
75922;SDS011;64602;47.542;19.090;2023-06-22T21:12:00;13.60;;;7.90;;
75922;SDS011;64602;47.542;19.090;2023-06-22T21:17:02;9.80;;;6.95;;
75922;SDS011;64602;47.542;19.090;2023-06-22T21:22:04;14.35;;;8.35;;
75922;SDS011;64602;47.542;19.090;2023-06-22T21:27:07;12.37;;;7.90;;
75922;SDS011;64602;47.542;19.090;2023-06-22T21:32:09;12.60;;;7.47;;
75922;SDS011;64602;47.542;19.090;2023-06-22T21:37:11;12.10;;;7.50;;
75922;SDS011;64602;47.542;19.090;2023-06-22T21:42:13;12.47;;;8.13;;
75922;SDS011;64602;47.542;19.090;2023-06-22T21:47:16;11.73;;;8.15;;
75922;SDS011;64602;47.542;19.090;2023-06-22T21:52:18;11.38;;;8.45;;
75922;SDS011;64602;47.542;19.090;2023-06-22T21:57:20;11.47;;;8.77;;
75922;SDS011;64602;47.542;19.090;2023-06-22T22:02:28;15.23;;;9.13;;
75922;SDS011;64602;47.542;19.090;2023-06-22T22:07:30;12.50;;;9.35;;
75922;SDS011;64602;47.542;19.090;2023-06-22T22:12:32;12.68;;;9.13;;
75922;SDS011;64602;47.542;19.090;2023-06-22T22:17:35;13.37;;;9.63;;
75922;SDS011;64602;47.542;19.090;2023-06-22T22:22:37;17.67;;;10.55;;
75922;SDS011;64602;47.542;19.090;2023-06-22T22:27:40;12.90;;;9.32;;
75922;SDS011;64602;47.542;19.090;2023-06-22T22:32:42;13.23;;;10.80;;
75922;SDS011;64602;47.542;19.090;2023-06-22T22:44:00;14.07;;;10.80;;
75922;SDS011;64602;47.542;19.090;2023-06-22T22:49:02;12.53;;;10.43;;
75922;SDS011;64602;47.542;19.090;2023-06-22T22:54:05;15.67;;;10.40;;
75922;SDS011;64602;47.542;19.090;2023-06-22T22:59:08;14.00;;;10.60;;
75922;SDS011;64602;47.542;19.090;2023-06-22T23:04:10;12.90;;;10.32;;
75922;SDS011;64602;47.542;19.090;2023-06-22T23:09:13;12.47;;;10.57;;
75922;SDS011;64602;47.542;19.090;2023-06-22T23:14:15;14.23;;;11.48;;
75922;SDS011;64602;47.542;19.090;2023-06-22T23:19:17;13.85;;;11.07;;
75922;SDS011;64602;47.542;19.090;2023-06-22T23:24:19;16.13;;;11.00;;
75922;SDS011;64602;47.542;19.090;2023-06-22T23:29:22;13.68;;;11.48;;
75922;SDS011;64602;47.542;19.090;2023-06-22T23:34:24;14.27;;;10.45;;
75922;SDS011;64602;47.542;19.090;2023-06-22T23:39:26;15.23;;;11.13;;
75922;SDS011;64602;47.542;19.090;2023-06-22T23:44:29;13.40;;;10.77;;
75922;SDS011;64602;47.542;19.090;2023-06-22T23:49:31;14.65;;;10.43;;
75922;SDS011;64602;47.542;19.090;2023-06-22T23:54:33;14.45;;;11.65;;
75922;SDS011;64602;47.542;19.090;2023-06-22T23:59:35;15.93;;;10.93;;
